createdAt,value
2019-04-06T00:00:05.295Z,95.70
2019-04-06T00:02:36.102Z,95.50
2019-04-06T00:05:04.801Z,95.50
2019-04-06T00:07:32.714Z,95.50
2019-04-06T00:10:02.980Z,95.20
2019-04-06T00:12:30.905Z,95.20
2019-04-06T00:14:58.756Z,95.30
2019-04-06T00:17:27.038Z,95.20
2019-04-06T00:19:55.066Z,95.40
2019-04-06T00:22:23.031Z,95.30
2019-04-06T00:24:50.948Z,95.40
2019-04-06T00:27:18.844Z,95.50
2019-04-06T00:29:46.783Z,95.40
2019-04-06T00:32:30.403Z,95.60
2019-04-06T00:34:58.265Z,95.60
2019-04-06T00:37:26.045Z,95.70
2019-04-06T00:39:57.212Z,95.60
2019-04-06T00:42:25.177Z,95.40
2019-04-06T00:44:52.821Z,95.40
2019-04-06T00:47:31.102Z,95.30
2019-04-06T00:49:59.872Z,95.10
2019-04-06T00:52:38.765Z,95.10
2019-04-06T00:55:07.004Z,94.80
2019-04-06T00:57:35.042Z,94.80
2019-04-06T01:00:08.470Z,94.70
2019-04-06T01:02:36.603Z,94.70
2019-04-06T01:05:05.215Z,94.70
2019-04-06T01:07:34.142Z,94.70
2019-04-06T01:10:11.462Z,94.50
2019-04-06T01:12:39.428Z,94.40
2019-04-06T01:15:09.475Z,94.50
2019-04-06T01:17:37.333Z,94.50
2019-04-06T01:20:05.385Z,94.60
2019-04-06T01:22:33.362Z,94.60
2019-04-06T01:25:01.357Z,94.50
2019-04-06T01:27:29.328Z,94.50
2019-04-06T01:29:57.246Z,94.40
2019-04-06T01:32:25.221Z,94.30
2019-04-06T01:34:53.118Z,94.30
2019-04-06T01:37:26.832Z,94.60
2019-04-06T01:39:54.613Z,94.80
2019-04-06T01:42:22.618Z,94.90
2019-04-06T01:44:52.616Z,95.00
2019-04-06T01:47:21.092Z,95.00
2019-04-06T01:49:48.821Z,95.10
2019-04-06T01:52:18.124Z,95.30
2019-04-06T01:54:45.942Z,95.50
2019-04-06T01:57:14.136Z,95.30
2019-04-06T01:59:42.070Z,95.20
2019-04-06T02:02:30.598Z,95.20
2019-04-06T02:04:58.513Z,95.60
2019-04-06T02:07:26.077Z,95.80
2019-04-06T02:09:54.389Z,96.00
2019-04-06T02:12:22.656Z,96.20
2019-04-06T02:14:50.506Z,96.20
2019-04-06T02:17:22.145Z,96.30
2019-04-06T02:19:49.969Z,96.10
2019-04-06T02:22:18.035Z,96.00
2019-04-06T02:24:46.581Z,95.80
2019-04-06T02:27:14.642Z,95.90
2019-04-06T02:29:43.606Z,95.90
2019-04-06T02:32:37.277Z,95.90
2019-04-06T02:35:25.070Z,96.20
2019-04-06T02:38:14.902Z,96.10
2019-04-06T02:40:58.066Z,95.70
2019-04-06T02:43:28.873Z,95.50
2019-04-06T02:45:56.686Z,95.80
2019-04-06T02:48:24.842Z,95.70
2019-04-06T02:50:52.847Z,95.70
2019-04-06T02:53:20.634Z,95.70
2019-04-06T02:55:48.452Z,95.80
2019-04-06T02:58:16.610Z,95.70
2019-04-06T03:00:44.728Z,95.70
2019-04-06T03:03:13.003Z,95.70
2019-04-06T03:05:40.788Z,95.50
2019-04-06T03:08:08.671Z,95.50
2019-04-06T03:10:36.374Z,95.50
2019-04-06T03:13:04.435Z,95.50
2019-04-06T03:15:32.505Z,95.70
2019-04-06T03:18:00.614Z,95.50
2019-04-06T03:20:34.816Z,95.60
2019-04-06T03:23:03.239Z,95.80
2019-04-06T03:25:31.342Z,95.80
2019-04-06T03:27:59.518Z,95.70
2019-04-06T03:30:27.829Z,95.60
2019-04-06T03:32:55.783Z,95.60
2019-04-06T03:35:23.607Z,95.60
2019-04-06T03:37:51.999Z,95.60
2019-04-06T03:40:20.298Z,95.70
2019-04-06T03:42:55.175Z,95.60
2019-04-06T03:45:23.195Z,95.70
2019-04-06T03:47:51.057Z,95.80
2019-04-06T03:50:19.057Z,95.80
2019-04-06T03:52:47.089Z,95.90
2019-04-06T03:55:14.864Z,95.70
2019-04-06T03:57:42.432Z,95.70
2019-04-06T04:00:12.691Z,95.80
2019-04-06T04:02:44.075Z,95.80
2019-04-06T04:05:15.362Z,95.60
2019-04-06T04:07:42.914Z,95.50
2019-04-06T04:10:19.872Z,95.60
2019-04-06T04:12:48.654Z,95.90
2019-04-06T04:15:16.297Z,96.00
2019-04-06T04:17:43.784Z,96.00
2019-04-06T04:20:11.333Z,96.10
2019-04-06T04:22:38.825Z,96.10
2019-04-06T04:25:06.438Z,96.00
2019-04-06T04:27:34.079Z,96.10
2019-04-06T04:30:01.658Z,96.10
2019-04-06T04:32:29.152Z,96.20
2019-04-06T04:34:57.357Z,96.40
2019-04-06T04:37:25.277Z,96.60
2019-04-06T04:39:53.357Z,96.70
2019-04-06T04:42:21.031Z,96.70
2019-04-06T04:44:58.011Z,96.70
2019-04-06T04:47:25.489Z,96.90
2019-04-06T04:49:52.980Z,96.90
2019-04-06T04:52:20.447Z,96.70
2019-04-06T04:54:48.312Z,96.70
2019-04-06T04:57:16.072Z,96.50
2019-04-06T04:59:43.954Z,96.50
2019-04-06T05:02:11.912Z,96.20
2019-04-06T05:04:39.780Z,96.40
2019-04-06T05:07:07.323Z,96.40
2019-04-06T05:09:34.785Z,96.40
2019-04-06T05:12:02.603Z,96.50
2019-04-06T05:14:55.895Z,97.00
2019-04-06T05:17:23.714Z,96.70
2019-04-06T05:19:51.335Z,96.90
2019-04-06T05:22:18.827Z,96.80
2019-04-06T05:24:46.805Z,96.90
2019-04-06T05:27:14.296Z,96.70
2019-04-06T05:29:42.162Z,96.50
2019-04-06T05:32:16.441Z,96.40
2019-04-06T05:34:44.070Z,96.50
2019-04-06T05:37:11.763Z,96.60
2019-04-06T05:39:39.315Z,96.60
2019-04-06T05:42:07.247Z,96.50
2019-04-06T05:44:34.736Z,96.40
2019-04-06T05:47:02.269Z,96.30
2019-04-06T05:49:29.796Z,96.40
2019-04-06T05:51:58.733Z,96.40
2019-04-06T05:54:26.391Z,96.20
2019-04-06T05:56:54.016Z,96.00
2019-04-06T05:59:21.641Z,95.90
2019-04-06T06:01:49.493Z,95.70
2019-04-06T06:04:17.431Z,95.70
2019-04-06T06:06:45.229Z,95.70
2019-04-06T06:09:12.926Z,95.70
2019-04-06T06:11:40.752Z,95.40
2019-04-06T06:14:16.098Z,95.20
2019-04-06T06:16:44.029Z,95.10
2019-04-06T06:19:11.909Z,95.00
2019-04-06T06:21:39.796Z,94.60
2019-04-06T06:24:07.666Z,94.70
2019-04-06T06:26:35.427Z,94.50
2019-04-06T06:29:03.534Z,94.50
2019-04-06T06:31:40.255Z,94.30
2019-04-06T06:34:08.541Z,94.20
2019-04-06T06:36:38.289Z,94.10
2019-04-06T06:39:07.472Z,94.00
2019-04-06T06:41:35.373Z,93.90
2019-04-06T06:44:02.936Z,93.70
2019-04-06T06:46:30.653Z,94.20
2019-04-06T06:48:58.353Z,93.80
2019-04-06T06:51:26.678Z,93.80
2019-04-06T06:53:54.405Z,94.10
2019-04-06T06:56:22.571Z,93.60
2019-04-06T06:58:50.358Z,93.60
2019-04-06T07:01:18.538Z,93.30
2019-04-06T07:03:46.637Z,93.20
2019-04-06T07:06:14.893Z,93.40
2019-04-06T07:08:42.719Z,93.80
2019-04-06T07:11:11.455Z,93.20
2019-04-06T07:13:39.269Z,93.20
2019-04-06T07:16:07.385Z,92.90
2019-04-06T07:18:37.914Z,92.30
2019-04-06T07:21:05.881Z,92.20
2019-04-06T07:23:46.604Z,92.50
2019-04-06T07:26:21.873Z,92.50
2019-04-06T07:28:52.227Z,92.30
2019-04-06T07:31:23.606Z,92.00
2019-04-06T07:33:57.760Z,92.30
2019-04-06T07:36:27.260Z,92.60
2019-04-06T07:38:54.996Z,92.70
2019-04-06T07:41:23.267Z,92.90
2019-04-06T07:43:53.887Z,92.90
2019-04-06T07:46:23.852Z,92.80
2019-04-06T07:49:07.494Z,93.00
2019-04-06T07:51:30.282Z,93.50
2019-04-06T07:53:57.809Z,93.60
2019-04-06T07:56:25.982Z,93.50
2019-04-06T07:58:53.581Z,93.70
2019-04-06T08:01:21.322Z,93.20
2019-04-06T08:03:49.450Z,93.10
2019-04-06T08:06:17.238Z,93.40
2019-04-06T08:08:45.652Z,93.10
2019-04-06T08:11:13.265Z,93.20
2019-04-06T08:13:40.858Z,93.20
2019-04-06T08:16:08.714Z,93.60
2019-04-06T08:18:36.350Z,93.60
2019-04-06T08:21:04.102Z,93.10
2019-04-06T08:23:31.769Z,93.30
2019-04-06T08:25:59.351Z,93.30
2019-04-06T08:28:27.022Z,93.30
2019-04-06T08:30:54.772Z,93.50
2019-04-06T08:33:22.517Z,93.90
2019-04-06T08:35:52.712Z,93.90
2019-04-06T08:38:20.509Z,93.90
2019-04-06T08:40:48.135Z,93.70
2019-04-06T08:43:15.949Z,93.40
2019-04-06T08:45:43.694Z,93.10
2019-04-06T08:48:11.406Z,93.10
2019-04-06T08:50:39.002Z,92.80
2019-04-06T08:53:07.818Z,92.90
2019-04-06T08:55:35.595Z,93.10
2019-04-06T08:58:03.915Z,93.10
2019-04-06T09:00:31.718Z,93.00
2019-04-06T09:02:59.389Z,93.10
2019-04-06T09:05:26.927Z,92.50
2019-04-06T09:07:54.488Z,93.30
2019-04-06T09:10:22.613Z,93.00
2019-04-06T09:12:53.395Z,93.00
2019-04-06T09:15:24.214Z,92.90
2019-04-06T09:17:52.093Z,93.00
2019-04-06T09:20:19.691Z,92.70
2019-04-06T09:22:50.500Z,92.60
2019-04-06T09:25:18.285Z,92.30
2019-04-06T09:27:49.061Z,92.20
2019-04-06T09:30:17.173Z,92.10
2019-04-06T09:32:44.750Z,92.30
2019-04-06T09:35:16.374Z,92.00
2019-04-06T09:37:53.622Z,91.90
2019-04-06T09:40:22.253Z,91.50
2019-04-06T09:42:54.769Z,91.00
2019-04-06T09:45:49.733Z,91.20
2019-04-06T09:48:31.742Z,90.50
2019-04-06T09:51:11.262Z,90.40
2019-04-06T09:54:06.373Z,90.10
2019-04-06T09:56:41.778Z,90.00
2019-04-06T09:59:35.246Z,88.60
2019-04-06T10:02:15.963Z,88.60
2019-04-06T10:05:01.600Z,88.60
2019-04-06T10:07:54.893Z,88.20
2019-04-06T10:11:00.519Z,88.50
2019-04-06T10:13:46.524Z,89.50
2019-04-06T10:16:32.657Z,88.90
2019-04-06T10:19:09.891Z,88.90
2019-04-06T10:21:55.460Z,89.50
2019-04-06T10:24:29.943Z,89.50
2019-04-06T10:27:19.697Z,89.70
2019-04-06T10:30:09.954Z,90.00
2019-04-06T10:32:52.956Z,90.30
2019-04-06T10:35:41.443Z,90.40
2019-04-06T10:38:19.180Z,90.60
2019-04-06T10:41:01.916Z,90.60
2019-04-06T10:43:46.393Z,90.70
2019-04-06T10:46:34.587Z,90.50
2019-04-06T10:49:34.388Z,90.70
2019-04-06T10:52:36.771Z,90.00
2019-04-06T10:55:27.295Z,89.80
2019-04-06T10:58:17.165Z,90.20
2019-04-06T11:01:16.593Z,90.40
2019-04-06T11:04:03.588Z,90.00
2019-04-06T11:06:53.765Z,89.80
2019-04-06T11:09:34.978Z,89.00
2019-04-06T11:12:20.591Z,88.90
2019-04-06T11:15:06.177Z,88.90
2019-04-06T11:18:00.123Z,88.50
2019-04-06T11:20:47.454Z,87.70
2019-04-06T11:23:28.816Z,87.90
2019-04-06T11:26:14.786Z,88.10
2019-04-06T11:29:11.017Z,88.00
2019-04-06T11:31:47.101Z,87.70
2019-04-06T11:34:46.189Z,88.10
2019-04-06T11:37:31.680Z,87.90
2019-04-06T11:40:20.933Z,87.50
2019-04-06T11:43:07.986Z,87.80
2019-04-06T11:46:07.254Z,86.30
2019-04-06T11:48:42.143Z,85.90
2019-04-06T11:51:32.169Z,86.00
2019-04-06T11:54:12.227Z,85.90
2019-04-06T11:56:50.412Z,85.30
2019-04-06T11:59:35.301Z,84.70
2019-04-06T12:02:22.429Z,84.70
2019-04-06T12:05:15.756Z,84.70
2019-04-06T12:08:03.008Z,84.20
2019-04-06T12:10:49.898Z,84.60
2019-04-06T12:13:38.946Z,84.70
2019-04-06T12:16:24.690Z,85.00
2019-04-06T12:19:15.401Z,85.00
2019-04-06T12:22:08.423Z,85.10
2019-04-06T12:24:54.080Z,84.70
2019-04-06T12:27:44.306Z,85.60
2019-04-06T12:30:37.989Z,85.20
2019-04-06T12:33:26.529Z,85.30
2019-04-06T12:36:00.985Z,85.10
2019-04-06T12:38:56.994Z,83.80
2019-04-06T12:41:42.986Z,83.80
2019-04-06T12:44:39.714Z,83.80
2019-04-06T12:47:22.021Z,84.40
2019-04-06T12:50:19.360Z,84.30
2019-04-06T12:52:57.963Z,83.70
2019-04-06T12:55:48.257Z,83.90
2019-04-06T12:58:31.032Z,84.00
2019-04-06T13:01:24.135Z,84.40
2019-04-06T13:04:23.388Z,83.80
2019-04-06T13:07:25.845Z,84.30
2019-04-06T13:10:07.391Z,84.30
2019-04-06T13:12:57.683Z,84.50
2019-04-06T13:15:34.210Z,84.60
2019-04-06T13:18:30.937Z,85.00
2019-04-06T13:21:27.058Z,84.50
2019-04-06T13:24:05.718Z,84.10
2019-04-06T13:26:58.616Z,84.00
2019-04-06T13:29:39.952Z,85.00
2019-04-06T13:32:21.816Z,85.20
2019-04-06T13:35:07.984Z,84.60
2019-04-06T13:37:53.826Z,84.80
2019-04-06T13:40:41.532Z,84.40
2019-04-06T13:43:27.558Z,84.50
2019-04-06T13:46:13.169Z,84.40
2019-04-06T13:49:06.913Z,84.20
2019-04-06T13:51:56.669Z,84.00
2019-04-06T13:54:47.568Z,83.40
2019-04-06T13:57:23.797Z,83.90
2019-04-06T14:00:09.913Z,83.20
2019-04-06T14:02:56.998Z,83.00
2019-04-06T14:05:44.204Z,82.60
2019-04-06T14:08:26.516Z,82.90
2019-04-06T14:11:00.846Z,83.50
2019-04-06T14:13:53.608Z,83.30
2019-04-06T14:16:39.253Z,83.50
2019-04-06T14:19:29.844Z,82.60
2019-04-06T14:22:08.758Z,82.50
2019-04-06T14:25:07.690Z,82.90
2019-04-06T14:27:57.795Z,82.20
2019-04-06T14:31:00.274Z,82.10
2019-04-06T14:33:47.390Z,81.80
2019-04-06T14:36:29.499Z,82.00
2019-04-06T14:39:15.287Z,81.10
2019-04-06T14:42:14.402Z,81.70
2019-04-06T14:45:10.436Z,81.00
2019-04-06T14:48:09.734Z,80.80
2019-04-06T14:51:09.366Z,80.50
2019-04-06T14:53:43.385Z,80.50
2019-04-06T14:56:36.226Z,81.00
2019-04-06T14:59:21.826Z,81.30
2019-04-06T15:02:02.519Z,81.10
2019-04-06T15:04:55.328Z,81.60
2019-04-06T15:07:29.361Z,81.00
2019-04-06T15:10:25.286Z,80.50
2019-04-06T15:13:18.224Z,80.80
2019-04-06T15:16:05.333Z,80.40
2019-04-06T15:19:01.335Z,80.50
2019-04-06T15:21:38.182Z,80.50
2019-04-06T15:24:31.853Z,80.20
2019-04-06T15:27:31.178Z,80.20
2019-04-06T15:30:25.052Z,80.20
2019-04-06T15:33:04.563Z,80.10
2019-04-06T15:35:47.381Z,80.50
2019-04-06T15:38:39.576Z,80.60
2019-04-06T15:41:24.588Z,80.70
2019-04-06T15:44:06.020Z,80.20
2019-04-06T15:46:43.710Z,79.80
2019-04-06T15:49:41.408Z,80.10
2019-04-06T15:52:26.218Z,79.80
2019-04-06T15:55:18.968Z,79.60
2019-04-06T15:58:03.932Z,79.70
2019-04-06T16:00:57.354Z,79.70
2019-04-06T16:03:34.896Z,79.70
2019-04-06T16:06:34.529Z,80.00
2019-04-06T16:09:22.195Z,80.30
2019-04-06T16:12:28.166Z,80.30
2019-04-06T16:15:15.174Z,80.20
2019-04-06T16:18:17.587Z,80.60
2019-04-06T16:21:03.343Z,81.00
2019-04-06T16:24:02.221Z,81.40
2019-04-06T16:26:41.620Z,81.40
2019-04-06T16:29:24.788Z,81.60
2019-04-06T16:32:11.512Z,81.40
2019-04-06T16:35:00.969Z,81.30
2019-04-06T16:37:38.741Z,81.30
2019-04-06T16:40:24.608Z,81.10
2019-04-06T16:43:07.152Z,80.70
2019-04-06T16:45:52.500Z,81.00
2019-04-06T16:48:48.412Z,80.60
2019-04-06T16:51:33.957Z,80.20
2019-04-06T16:54:17.689Z,79.80
2019-04-06T16:56:58.445Z,79.90
2019-04-06T16:59:43.378Z,80.20
2019-04-06T17:02:47.807Z,80.10
2019-04-06T17:05:37.172Z,80.20
2019-04-06T17:08:14.555Z,80.10
2019-04-06T17:11:01.604Z,80.30
2019-04-06T17:13:45.564Z,80.10
2019-04-06T17:16:35.685Z,80.20
2019-04-06T17:19:21.421Z,80.30
2019-04-06T17:21:58.998Z,80.40
2019-04-06T17:24:52.264Z,80.30
2019-04-06T17:27:37.445Z,80.40
2019-04-06T17:30:27.772Z,80.60
2019-04-06T17:33:16.803Z,80.60
2019-04-06T17:36:04.577Z,80.90
2019-04-06T17:39:00.269Z,81.00
2019-04-06T17:41:50.564Z,81.10
2019-04-06T17:44:43.308Z,80.90
2019-04-06T17:47:33.056Z,81.00
2019-04-06T17:50:19.812Z,80.80
2019-04-06T17:53:25.024Z,80.80
2019-04-06T17:56:09.147Z,80.50
2019-04-06T17:58:59.059Z,80.60
2019-04-06T18:01:45.558Z,80.70
2019-04-06T18:04:36.447Z,80.60
2019-04-06T18:07:10.705Z,80.80
2019-04-06T18:10:17.324Z,80.80
2019-04-06T18:13:10.252Z,80.90
2019-04-06T18:15:39.790Z,81.10
2019-04-06T18:18:07.357Z,81.50
2019-04-06T18:20:36.333Z,81.70
2019-04-06T18:23:03.882Z,82.40
2019-04-06T18:25:32.472Z,82.20
2019-04-06T18:28:00.537Z,82.50
2019-04-06T18:30:28.127Z,82.70
2019-04-06T18:33:07.208Z,82.90
2019-04-06T18:35:35.056Z,83.10
2019-04-06T18:38:09.074Z,83.20
2019-04-06T18:40:37.002Z,83.30
2019-04-06T18:43:04.600Z,83.50
2019-04-06T18:45:32.535Z,83.80
2019-04-06T18:48:00.057Z,84.40
2019-04-06T18:50:34.411Z,84.60
2019-04-06T18:52:56.824Z,84.90
2019-04-06T18:55:24.605Z,85.20
2019-04-06T18:57:52.634Z,85.30
2019-04-06T19:00:20.110Z,85.50
2019-04-06T19:02:49.159Z,85.90
2019-04-06T19:05:17.294Z,86.00
2019-04-06T19:07:44.945Z,86.10
2019-04-06T19:10:12.553Z,86.30
2019-04-06T19:12:39.980Z,86.40
2019-04-06T19:15:08.122Z,86.50
2019-04-06T19:17:35.691Z,86.70
2019-04-06T19:20:04.425Z,86.90
2019-04-06T19:22:32.185Z,87.10
2019-04-06T19:24:59.969Z,87.20
2019-04-06T19:27:37.839Z,87.00
2019-04-06T19:30:07.711Z,87.10
2019-04-06T19:32:35.625Z,87.10
2019-04-06T19:35:04.429Z,87.30
2019-04-06T19:37:31.917Z,87.40
2019-04-06T19:40:00.656Z,87.80
2019-04-06T19:42:28.564Z,88.00
2019-04-06T19:44:56.793Z,88.50
2019-04-06T19:47:24.903Z,88.80
2019-04-06T19:49:52.845Z,88.80
2019-04-06T19:52:21.490Z,88.80
2019-04-06T19:54:50.203Z,88.90
2019-04-06T19:57:18.613Z,89.20
2019-04-06T19:59:46.260Z,89.30
2019-04-06T20:02:14.509Z,89.30
2019-04-06T20:04:42.456Z,89.20
2019-04-06T20:07:11.519Z,89.30
2019-04-06T20:09:39.945Z,89.70
2019-04-06T20:12:09.135Z,90.00
2019-04-06T20:14:37.345Z,90.10
2019-04-06T20:17:05.290Z,90.10
2019-04-06T20:19:33.841Z,90.30
2019-04-06T20:22:02.070Z,90.30
2019-04-06T20:24:30.081Z,90.40
2019-04-06T20:26:58.066Z,90.50
2019-04-06T20:29:25.859Z,90.50
2019-04-06T20:31:53.764Z,90.60
2019-04-06T20:34:22.181Z,90.60
2019-04-06T20:36:51.465Z,90.70
2019-04-06T20:39:20.217Z,90.80
2019-04-06T20:41:50.531Z,90.90
2019-04-06T20:44:21.543Z,90.90
2019-04-06T20:46:50.563Z,91.00
2019-04-06T20:49:18.569Z,91.10
2019-04-06T20:51:47.078Z,91.20
2019-04-06T20:54:15.590Z,91.40
2019-04-06T20:56:53.253Z,91.40
2019-04-06T20:59:12.980Z,91.60
2019-04-06T21:01:41.671Z,91.70
2019-04-06T21:04:09.334Z,91.90
2019-04-06T21:06:37.051Z,92.00
2019-04-06T21:09:07.989Z,91.80
2019-04-06T21:11:35.740Z,91.90
2019-04-06T21:14:03.608Z,91.80
2019-04-06T21:16:31.491Z,91.70
2019-04-06T21:18:59.337Z,91.60
2019-04-06T21:21:27.029Z,91.60
2019-04-06T21:23:54.684Z,91.60
2019-04-06T21:26:22.482Z,91.60
2019-04-06T21:28:51.150Z,91.70
2019-04-06T21:31:18.933Z,91.90
2019-04-06T21:33:46.763Z,92.20
2019-04-06T21:36:15.211Z,91.90
2019-04-06T21:38:42.997Z,92.20
2019-04-06T21:41:11.345Z,91.80
2019-04-06T21:43:39.050Z,91.90
2019-04-06T21:46:06.725Z,92.00
2019-04-06T21:48:35.120Z,92.10
2019-04-06T21:51:02.931Z,92.10
2019-04-06T21:53:30.809Z,92.10
2019-04-06T21:56:03.394Z,92.10
2019-04-06T21:58:27.975Z,92.10
2019-04-06T22:00:56.938Z,92.10
2019-04-06T22:03:24.555Z,92.10
2019-04-06T22:05:52.103Z,92.10
2019-04-06T22:08:20.322Z,92.10
2019-04-06T22:10:49.032Z,92.20
2019-04-06T22:13:16.823Z,92.10
2019-04-06T22:15:45.082Z,92.20
2019-04-06T22:18:13.506Z,92.50
2019-04-06T22:20:41.331Z,92.50
2019-04-06T22:23:09.304Z,92.60
2019-04-06T22:25:37.684Z,92.60
2019-04-06T22:28:05.350Z,92.50
2019-04-06T22:30:33.108Z,92.40
2019-04-06T22:33:00.758Z,92.40
2019-04-06T22:35:30.516Z,92.50
2019-04-06T22:37:58.716Z,92.50
2019-04-06T22:40:26.470Z,92.60
2019-04-06T22:42:54.214Z,92.60
2019-04-06T22:45:23.184Z,92.70
2019-04-06T22:47:50.864Z,92.60
2019-04-06T22:50:18.876Z,92.70
2019-04-06T22:52:47.040Z,93.10
2019-04-06T22:55:15.401Z,93.30
2019-04-06T22:57:43.269Z,93.40
2019-04-06T23:00:16.094Z,93.50
2019-04-06T23:02:53.322Z,93.60
2019-04-06T23:05:29.556Z,93.60
2019-04-06T23:07:57.751Z,93.80
2019-04-06T23:10:25.942Z,94.10
2019-04-06T23:12:53.499Z,94.20
2019-04-06T23:15:21.111Z,94.30
2019-04-06T23:17:48.745Z,94.30
2019-04-06T23:20:16.451Z,94.20
2019-04-06T23:22:44.623Z,94.30
2019-04-06T23:25:12.797Z,94.50
2019-04-06T23:27:42.027Z,94.80
2019-04-06T23:30:10.482Z,94.70
2019-04-06T23:32:38.164Z,94.60
2019-04-06T23:35:05.859Z,94.70
2019-04-06T23:37:33.998Z,94.70
2019-04-06T23:40:04.267Z,94.70
2019-04-06T23:42:31.854Z,94.60
2019-04-06T23:44:59.781Z,94.40
2019-04-06T23:47:27.399Z,94.20
2019-04-06T23:49:56.222Z,94.30
2019-04-06T23:52:24.085Z,94.20
2019-04-06T23:54:52.379Z,94.10
2019-04-06T23:57:20.133Z,94.20
2019-04-06T23:59:47.823Z,94.20
